Hlavní strana
METAR-TAF:

METAR-TAF

Letiště :

Franceville, Gabon

zeměpisná šířka: 01-39S, zeměpisná délka: 013-26E, výška: 441 m

Aktuální stav počasí

Zpráva byla vytvořena před 53 minutami, v 13:00 UTC
Severoseverozápadní vítr 4 kt, proměnlivý mezi západoseverozápadním a severoseverovýchodním
Teplota 30°C
Vlhkost vzduchu 70%
Tlak 1014 hPa
Viditelnost 10 km a více
Polojasno ve výšce 1300 ft

METAR: FOON 261300Z 34004KT 300V030 9999 SCT013 30/24 Q1014

Čas: 14:53 (13:53 UTC)


TAF: chybějící

Stav a předpovědi počasí z více než 4 000 letišť (zprávy METAR a TAF).

Červené a žluté tečky na mapě představují dostupné meteorologické stanice.

Když kurzor umístíte na tečku, zobrazí se název stanice.

Pak kliknutím zobrazíte stav a předpověď počasí.

Chcete-li změnit mapu, kliknutím na zelené tlačítko se znaménkem +mapu přiblížíte, kliknutím na zelené tlačítko se znaménkem – mapu oddálíte a kliknutím na zelené šipky přejdete na sousední mapy.


METAR-TAF: